createdAt,value
2019-05-25T00:00:29.128Z,84.39
2019-05-25T00:00:59.187Z,84.40
2019-05-25T00:01:31.171Z,84.39
2019-05-25T00:01:59.243Z,84.44
2019-05-25T00:02:35.214Z,84.39
2019-05-25T00:02:59.202Z,84.32
2019-05-25T00:03:29.138Z,84.31
2019-05-25T00:03:59.282Z,84.34
2019-05-25T00:04:29.137Z,84.42
2019-05-25T00:04:59.193Z,84.52
2019-05-25T00:05:29.140Z,84.58
2019-05-25T00:05:59.280Z,84.48
2019-05-25T00:06:29.186Z,84.36
2019-05-25T00:06:59.202Z,84.39
2019-05-25T00:07:29.136Z,84.41
2019-05-25T00:07:59.326Z,84.38
2019-05-25T00:08:29.132Z,84.39
2019-05-25T00:08:59.197Z,84.46
2019-05-25T00:09:29.134Z,84.54
2019-05-25T00:09:59.209Z,84.56
2019-05-25T00:10:29.128Z,84.57
2019-05-25T00:10:59.193Z,84.60
2019-05-25T00:11:29.148Z,84.60
2019-05-25T00:12:01.164Z,84.63
2019-05-25T00:12:29.132Z,84.59
2019-05-25T00:13:05.267Z,84.56
2019-05-25T00:13:29.146Z,84.51
2019-05-25T00:13:59.196Z,84.55
2019-05-25T00:14:29.132Z,84.55
2019-05-25T00:14:59.198Z,84.66
2019-05-25T00:15:29.129Z,84.78
2019-05-25T00:15:59.221Z,84.86
2019-05-25T00:16:29.141Z,84.96
2019-05-25T00:16:59.194Z,84.88
2019-05-25T00:17:29.138Z,84.77
2019-05-25T00:17:59.199Z,84.75
2019-05-25T00:18:29.140Z,84.65
2019-05-25T00:18:59.196Z,84.70
2019-05-25T00:19:29.141Z,84.71
2019-05-25T00:19:59.200Z,84.80
2019-05-25T00:20:29.149Z,84.86
2019-05-25T00:20:59.306Z,84.91
2019-05-25T00:21:29.133Z,84.93
2019-05-25T00:21:59.204Z,84.95
2019-05-25T00:22:31.418Z,85.01
2019-05-25T00:22:59.198Z,85.11
2019-05-25T00:23:35.451Z,85.13
2019-05-25T00:24:11.495Z,85.15
2019-05-25T00:24:29.132Z,85.10
2019-05-25T00:24:59.193Z,85.16
2019-05-25T00:25:29.141Z,85.13
2019-05-25T00:25:59.201Z,85.20
2019-05-25T00:26:29.137Z,85.27
2019-05-25T00:26:59.202Z,85.19
2019-05-25T00:27:29.134Z,85.17
2019-05-25T00:27:59.196Z,85.18
2019-05-25T00:28:29.132Z,85.13
2019-05-25T00:28:59.196Z,85.19
2019-05-25T00:29:29.141Z,85.26
2019-05-25T00:29:59.205Z,85.30
2019-05-25T00:30:29.140Z,85.45
2019-05-25T00:30:59.202Z,85.53
2019-05-25T00:31:29.144Z,85.61
2019-05-25T00:31:59.198Z,85.64
2019-05-25T00:32:29.140Z,85.63
2019-05-25T00:33:01.343Z,85.68
2019-05-25T00:33:29.146Z,85.65
2019-05-25T00:34:05.487Z,85.60
2019-05-25T00:34:29.150Z,85.56
2019-05-25T00:34:59.273Z,85.57
2019-05-25T00:35:29.156Z,85.59
2019-05-25T00:35:59.200Z,85.52
2019-05-25T00:36:29.146Z,85.50
2019-05-25T00:36:59.197Z,85.48
2019-05-25T00:37:29.157Z,85.47
2019-05-25T00:37:59.206Z,85.57
2019-05-25T00:38:29.140Z,85.51
2019-05-25T00:38:59.202Z,85.50
2019-05-25T00:39:29.137Z,85.49
2019-05-25T00:39:59.208Z,85.44
2019-05-25T00:40:29.139Z,85.44
2019-05-25T00:40:59.207Z,85.45
2019-05-25T00:41:29.146Z,85.39
2019-05-25T00:41:59.198Z,85.37
2019-05-25T00:42:29.145Z,85.29
2019-05-25T00:42:59.206Z,85.42
2019-05-25T00:43:31.192Z,85.37
2019-05-25T00:43:59.205Z,85.36
2019-05-25T00:44:35.210Z,85.35
2019-05-25T00:44:59.201Z,85.38
2019-05-25T00:45:29.137Z,85.37
2019-05-25T00:45:59.205Z,85.39
2019-05-25T00:46:29.141Z,85.35
2019-05-25T00:46:59.211Z,85.35
2019-05-25T00:47:29.155Z,85.24
2019-05-25T00:47:59.199Z,85.32
2019-05-25T00:48:29.151Z,85.31
2019-05-25T00:48:59.207Z,85.30
2019-05-25T00:49:29.152Z,85.32
2019-05-25T00:49:59.202Z,85.32
2019-05-25T00:50:29.145Z,85.32
2019-05-25T00:50:59.207Z,85.23
2019-05-25T00:51:29.177Z,85.12
2019-05-25T00:51:59.209Z,85.02
2019-05-25T00:52:29.139Z,84.91
2019-05-25T00:52:59.207Z,84.92
2019-05-25T00:53:29.149Z,84.70
2019-05-25T00:54:01.820Z,84.67
2019-05-25T00:54:29.146Z,84.78
2019-05-25T00:55:04.868Z,84.83
2019-05-25T00:55:29.144Z,84.88
2019-05-25T00:55:59.321Z,84.90
2019-05-25T00:56:29.142Z,84.95
2019-05-25T00:56:59.203Z,85.04
2019-05-25T00:57:29.141Z,85.02
2019-05-25T00:57:59.205Z,85.06
2019-05-25T00:58:29.146Z,85.09
2019-05-25T00:58:59.205Z,85.14
2019-05-25T00:59:29.151Z,85.19
2019-05-25T00:59:59.293Z,85.19
2019-05-25T01:00:29.141Z,85.24
2019-05-25T01:00:59.241Z,85.27
2019-05-25T01:01:29.146Z,85.32
2019-05-25T01:01:59.223Z,85.29
2019-05-25T01:02:29.248Z,85.34
2019-05-25T01:02:59.209Z,85.38
2019-05-25T01:03:29.157Z,85.35
2019-05-25T01:03:59.207Z,85.37
2019-05-25T01:04:31.469Z,85.40
2019-05-25T01:04:59.207Z,85.45
2019-05-25T01:05:34.899Z,85.45
2019-05-25T01:05:59.215Z,85.55
2019-05-25T01:06:29.159Z,85.57
2019-05-25T01:06:59.216Z,85.63
2019-05-25T01:07:29.150Z,85.66
2019-05-25T01:07:59.207Z,85.69
2019-05-25T01:08:29.157Z,85.71
2019-05-25T01:08:59.205Z,85.72
2019-05-25T01:09:29.153Z,85.72
2019-05-25T01:09:59.209Z,85.77
2019-05-25T01:10:29.198Z,85.79
2019-05-25T01:10:59.215Z,85.74
2019-05-25T01:11:29.149Z,85.72
2019-05-25T01:11:59.211Z,85.67
2019-05-25T01:12:29.213Z,85.63
2019-05-25T01:12:59.205Z,85.59
2019-05-25T01:13:29.147Z,85.60
2019-05-25T01:13:59.215Z,85.69
2019-05-25T01:14:29.207Z,85.75
2019-05-25T01:15:01.843Z,85.77
2019-05-25T01:15:29.152Z,85.86
2019-05-25T01:16:05.905Z,85.90
2019-05-25T01:16:29.315Z,85.96
2019-05-25T01:16:59.207Z,85.92
2019-05-25T01:17:29.147Z,85.86
2019-05-25T01:17:59.212Z,85.91
2019-05-25T01:18:29.164Z,85.96
2019-05-25T01:18:59.211Z,85.98
2019-05-25T01:19:29.159Z,85.96
2019-05-25T01:19:59.215Z,85.96
2019-05-25T01:20:29.155Z,85.91
2019-05-25T01:20:59.298Z,85.88
2019-05-25T01:21:29.161Z,85.89
2019-05-25T01:21:59.213Z,85.92
2019-05-25T01:22:29.163Z,85.94
2019-05-25T01:22:59.209Z,86.02
2019-05-25T01:23:29.269Z,86.05
2019-05-25T01:23:59.210Z,86.05
2019-05-25T01:24:43.629Z,86.09
2019-05-25T01:24:59.215Z,86.09
2019-05-25T01:25:31.479Z,86.10
2019-05-25T01:25:59.223Z,86.15
2019-05-25T01:26:35.456Z,86.15
2019-05-25T01:26:59.230Z,86.07
2019-05-25T01:27:29.157Z,86.03
2019-05-25T01:27:59.205Z,86.09
2019-05-25T01:28:29.150Z,86.05
2019-05-25T01:28:59.213Z,86.07
2019-05-25T01:29:29.153Z,86.11
2019-05-25T01:29:59.217Z,86.11
2019-05-25T01:30:29.150Z,86.11
2019-05-25T01:30:59.217Z,86.08
2019-05-25T01:31:29.153Z,86.06
2019-05-25T01:31:59.214Z,86.06
2019-05-25T01:32:29.152Z,86.10
2019-05-25T01:32:59.227Z,86.16
2019-05-25T01:33:29.158Z,86.19
2019-05-25T01:33:59.212Z,86.28
2019-05-25T01:34:29.159Z,86.36
2019-05-25T01:34:59.219Z,86.41
2019-05-25T01:35:29.157Z,86.45
2019-05-25T01:36:01.973Z,86.51
2019-05-25T01:36:29.157Z,86.53
2019-05-25T01:37:05.227Z,86.50
2019-05-25T01:37:29.163Z,86.43
2019-05-25T01:37:59.236Z,86.40
2019-05-25T01:38:29.158Z,86.35
2019-05-25T01:38:59.214Z,86.38
2019-05-25T01:39:29.230Z,86.38
2019-05-25T01:39:59.225Z,86.41
2019-05-25T01:40:29.157Z,86.38
2019-05-25T01:40:59.219Z,86.39
2019-05-25T01:41:29.162Z,86.44
2019-05-25T01:41:59.225Z,86.42
2019-05-25T01:42:29.163Z,86.37
2019-05-25T01:42:59.217Z,86.39
2019-05-25T01:43:29.183Z,86.38
2019-05-25T01:43:59.216Z,86.42
2019-05-25T01:44:29.249Z,86.40
2019-05-25T01:44:59.229Z,86.52
2019-05-25T01:45:29.159Z,86.58
2019-05-25T01:45:59.221Z,86.62
2019-05-25T01:49:34.988Z,86.58
2019-05-25T01:49:59.218Z,86.75
2019-05-25T01:50:29.157Z,86.76
2019-05-25T01:50:59.218Z,86.77
2019-05-25T01:51:29.164Z,86.74
2019-05-25T01:51:59.221Z,86.69
2019-05-25T01:52:29.163Z,86.66
2019-05-25T01:52:59.226Z,86.70
2019-05-25T01:53:31.109Z,86.74
2019-05-25T01:53:59.220Z,86.72
2019-05-25T01:54:33.156Z,86.70
2019-05-25T01:55:01.236Z,86.67
2019-05-25T01:55:32.071Z,86.66
2019-05-25T01:55:59.226Z,86.69
2019-05-25T01:56:29.245Z,86.71
2019-05-25T01:56:59.225Z,86.70
2019-05-25T01:57:29.164Z,86.74
2019-05-25T01:57:59.233Z,86.67
2019-05-25T01:58:29.250Z,86.72
2019-05-25T01:58:59.220Z,86.79
2019-05-25T01:59:29.161Z,86.83
2019-05-25T01:59:59.225Z,86.82
2019-05-25T02:00:29.222Z,86.82
2019-05-25T02:00:59.230Z,86.87
2019-05-25T02:01:29.161Z,86.81
2019-05-25T02:01:59.222Z,86.78
2019-05-25T02:04:55.625Z,86.96
2019-05-25T02:04:58.639Z,86.95
2019-05-25T02:05:29.266Z,87.00
2019-05-25T02:05:59.233Z,87.00
2019-05-25T02:06:29.161Z,87.11
2019-05-25T02:06:59.228Z,87.10
2019-05-25T02:07:29.167Z,87.12
2019-05-25T02:07:59.221Z,87.14
2019-05-25T02:08:29.170Z,87.20
2019-05-25T02:08:59.262Z,87.24
2019-05-25T02:09:29.177Z,87.24
2019-05-25T02:09:59.227Z,87.30
2019-05-25T02:10:29.162Z,87.31
2019-05-25T02:11:02.231Z,87.35
2019-05-25T02:11:29.174Z,87.30
2019-05-25T02:12:06.245Z,87.36
2019-05-25T02:12:29.167Z,87.48
2019-05-25T02:12:59.224Z,87.53
2019-05-25T02:13:29.162Z,87.56
2019-05-25T02:13:59.224Z,87.48
2019-05-25T02:14:29.167Z,87.48
2019-05-25T02:14:59.228Z,87.46
2019-05-25T02:15:29.246Z,87.48
2019-05-25T02:15:59.224Z,87.48
2019-05-25T02:16:29.166Z,87.52
2019-05-25T02:16:59.228Z,87.53
2019-05-25T02:17:29.206Z,87.52
2019-05-25T02:17:59.229Z,87.61
2019-05-25T02:18:29.177Z,87.61
2019-05-25T02:18:59.224Z,87.57
2019-05-25T02:19:29.229Z,87.62
2019-05-25T02:19:59.228Z,87.68
2019-05-25T02:20:29.188Z,87.82
2019-05-25T02:20:59.227Z,87.86
2019-05-25T02:21:32.933Z,87.84
2019-05-25T02:21:59.225Z,87.88
2019-05-25T02:22:35.212Z,87.86
2019-05-25T02:22:59.232Z,87.89
2019-05-25T02:23:29.173Z,87.95
2019-05-25T02:23:59.234Z,87.96
2019-05-25T02:24:29.175Z,87.95
2019-05-25T02:25:16.223Z,87.96
2019-05-25T02:25:29.171Z,87.95
2019-05-25T02:25:59.316Z,87.93
2019-05-25T02:26:29.176Z,87.95
2019-05-25T02:26:59.334Z,87.95
2019-05-25T02:27:29.176Z,87.97
2019-05-25T02:27:59.238Z,87.97
2019-05-25T02:28:29.244Z,87.93
2019-05-25T02:28:59.231Z,87.88
2019-05-25T02:29:29.172Z,87.82
2019-05-25T02:29:59.227Z,87.86
2019-05-25T02:30:29.176Z,87.89
2019-05-25T02:31:01.060Z,87.84
2019-05-25T02:31:29.173Z,87.86
2019-05-25T02:32:04.049Z,87.86
2019-05-25T02:32:29.166Z,87.92
2019-05-25T02:33:29.175Z,87.96
2019-05-25T02:33:59.246Z,87.97
2019-05-25T02:34:29.172Z,87.92
2019-05-25T02:34:59.232Z,87.85
2019-05-25T02:35:29.172Z,87.83
2019-05-25T02:35:59.232Z,87.82
2019-05-25T02:36:29.172Z,87.81
2019-05-25T02:36:59.236Z,87.79
2019-05-25T02:37:29.182Z,87.81
2019-05-25T02:37:59.238Z,87.84
2019-05-25T02:38:29.182Z,87.89
2019-05-25T02:38:59.234Z,87.90
2019-05-25T02:39:29.178Z,87.89
2019-05-25T02:39:59.231Z,87.82
2019-05-25T02:40:30.186Z,87.82
2019-05-25T02:40:59.234Z,87.79
2019-05-25T02:41:31.034Z,87.78
2019-05-25T02:41:59.251Z,87.78
2019-05-25T02:42:33.208Z,87.83
2019-05-25T02:42:59.237Z,87.80
2019-05-25T02:43:59.239Z,87.85
2019-05-25T02:44:29.278Z,87.89
2019-05-25T02:44:59.289Z,87.87
2019-05-25T02:45:29.168Z,87.87
2019-05-25T02:45:59.238Z,87.83
2019-05-25T02:46:29.178Z,87.82
2019-05-25T02:46:59.240Z,87.88
2019-05-25T02:47:29.201Z,87.88
2019-05-25T02:47:59.235Z,87.88
2019-05-25T02:48:29.180Z,87.85
2019-05-25T02:48:59.237Z,87.88
2019-05-25T02:49:29.174Z,87.93
2019-05-25T02:49:59.232Z,87.95
2019-05-25T02:50:29.177Z,87.93
2019-05-25T02:50:59.231Z,87.91
2019-05-25T02:51:29.176Z,87.91
2019-05-25T02:52:00.451Z,87.93
2019-05-25T02:52:29.180Z,87.91
2019-05-25T02:53:03.888Z,87.95
2019-05-25T02:53:29.184Z,87.98
2019-05-25T02:54:05.077Z,87.99
2019-05-25T02:54:29.183Z,87.96
2019-05-25T02:54:59.296Z,87.96
2019-05-25T02:55:34.635Z,87.88
2019-05-25T02:55:59.235Z,87.94
2019-05-25T02:56:29.189Z,87.91
2019-05-25T02:56:59.240Z,87.91
2019-05-25T02:57:29.178Z,87.94
2019-05-25T02:57:59.238Z,87.97
2019-05-25T02:58:29.180Z,88.00
2019-05-25T02:58:59.262Z,88.00
2019-05-25T02:59:29.242Z,87.98
2019-05-25T02:59:59.242Z,87.91
2019-05-25T03:00:29.180Z,87.90
2019-05-25T03:00:59.239Z,87.96
2019-05-25T03:01:29.169Z,88.01
2019-05-25T03:01:59.245Z,87.93
2019-05-25T03:02:30.339Z,87.91
2019-05-25T03:02:59.245Z,87.92
2019-05-25T03:03:34.309Z,87.96
2019-05-25T03:03:59.242Z,87.99
2019-05-25T03:04:59.250Z,87.94
2019-05-25T03:05:29.177Z,87.96
2019-05-25T03:05:59.243Z,87.99
2019-05-25T03:06:29.176Z,87.96
2019-05-25T03:06:59.234Z,87.94
2019-05-25T03:07:29.182Z,87.98
2019-05-25T03:07:59.238Z,88.01
2019-05-25T03:08:29.188Z,88.02
2019-05-25T03:08:59.245Z,88.02
2019-05-25T03:09:29.217Z,88.01
2019-05-25T03:09:59.259Z,87.96
2019-05-25T03:10:29.178Z,87.95
2019-05-25T03:10:59.250Z,87.92
2019-05-25T03:11:29.272Z,87.93
2019-05-25T03:11:59.256Z,87.93
2019-05-25T03:12:29.182Z,87.99
2019-05-25T03:13:00.500Z,87.95
2019-05-25T03:13:29.229Z,87.98
2019-05-25T03:14:04.434Z,87.98
2019-05-25T03:14:29.181Z,87.94
2019-05-25T03:15:29.244Z,87.99
2019-05-25T03:15:59.238Z,87.91
2019-05-25T03:16:29.181Z,87.91
2019-05-25T03:16:59.240Z,87.91
2019-05-25T03:17:29.184Z,87.89
2019-05-25T03:17:59.253Z,87.88
2019-05-25T03:18:29.188Z,87.82
2019-05-25T03:18:59.251Z,87.80
2019-05-25T03:19:29.185Z,87.79
2019-05-25T03:19:59.264Z,87.78
2019-05-25T03:20:29.184Z,87.72
2019-05-25T03:20:59.247Z,87.72
2019-05-25T03:21:29.198Z,87.71
2019-05-25T03:21:59.247Z,87.74
2019-05-25T03:22:29.189Z,87.77
2019-05-25T03:22:59.302Z,87.79
2019-05-25T03:23:30.321Z,87.81
2019-05-25T03:23:59.243Z,87.79
2019-05-25T03:24:34.515Z,87.83
2019-05-25T03:24:59.247Z,87.84
2019-05-25T03:25:48.443Z,87.86
2019-05-25T03:25:59.271Z,87.79
2019-05-25T03:26:29.183Z,87.76
2019-05-25T03:26:59.245Z,87.74
2019-05-25T03:27:29.189Z,87.66
2019-05-25T03:27:59.251Z,87.67
2019-05-25T03:28:29.192Z,87.64
2019-05-25T03:28:59.247Z,87.66
2019-05-25T03:29:29.276Z,87.70
2019-05-25T03:29:59.178Z,87.74
2019-05-25T03:30:29.267Z,87.71
2019-05-25T03:30:59.248Z,87.67
2019-05-25T03:31:29.190Z,87.67
2019-05-25T03:31:59.254Z,87.62
2019-05-25T03:32:29.187Z,87.57
2019-05-25T03:32:59.244Z,87.54
2019-05-25T03:33:29.181Z,87.51
2019-05-25T03:34:00.417Z,87.57
2019-05-25T03:34:29.219Z,87.48
2019-05-25T03:35:04.418Z,87.51
2019-05-25T03:35:29.204Z,87.54
2019-05-25T03:36:29.200Z,87.55
2019-05-25T03:36:59.254Z,87.53
2019-05-25T03:37:29.206Z,87.46
2019-05-25T03:37:59.257Z,87.47
2019-05-25T03:38:29.196Z,87.39
2019-05-25T03:38:59.264Z,87.34
2019-05-25T03:39:29.191Z,87.29
2019-05-25T03:39:59.259Z,87.23
2019-05-25T03:40:29.188Z,87.18
2019-05-25T03:41:00.834Z,87.13
2019-05-25T03:41:29.187Z,87.09
2019-05-25T03:41:59.246Z,87.01
2019-05-25T03:42:29.191Z,86.95
2019-05-25T03:42:59.368Z,86.94
2019-05-25T03:43:29.192Z,86.93
2019-05-25T03:43:59.250Z,86.92
2019-05-25T03:44:30.447Z,86.93
2019-05-25T03:44:59.258Z,86.98
2019-05-25T03:45:33.427Z,86.95
2019-05-25T03:45:59.251Z,86.91
2019-05-25T03:46:35.099Z,86.94
2019-05-25T03:46:59.359Z,86.90
2019-05-25T03:47:29.186Z,86.90
2019-05-25T03:47:59.251Z,86.99
2019-05-25T03:48:29.192Z,87.03
2019-05-25T03:48:59.296Z,87.00
2019-05-25T03:49:29.192Z,86.90
2019-05-25T03:49:59.254Z,86.88
2019-05-25T03:50:29.317Z,86.92
2019-05-25T03:50:59.263Z,86.96
2019-05-25T03:51:29.192Z,86.94
2019-05-25T03:51:59.263Z,86.82
2019-05-25T03:52:29.198Z,86.86
2019-05-25T03:52:59.261Z,86.87
2019-05-25T03:53:29.197Z,86.80
2019-05-25T03:53:59.265Z,86.80
2019-05-25T03:54:29.201Z,86.64
2019-05-25T03:55:00.254Z,86.61
2019-05-25T03:55:29.200Z,86.60
2019-05-25T03:56:06.627Z,86.57
2019-05-25T03:56:29.193Z,86.50
2019-05-25T03:57:05.096Z,86.45
2019-05-25T03:57:29.191Z,86.43
2019-05-25T03:57:59.259Z,86.30
2019-05-25T03:58:29.201Z,86.24
2019-05-25T03:58:59.257Z,86.17
2019-05-25T03:59:29.197Z,86.18
2019-05-25T03:59:59.290Z,86.19
2019-05-25T04:00:29.200Z,86.16
2019-05-25T04:01:00.690Z,86.17
2019-05-25T04:01:29.301Z,86.15
2019-05-25T04:01:59.256Z,86.16
2019-05-25T04:02:29.296Z,86.12
2019-05-25T04:02:59.257Z,86.07
2019-05-25T04:03:29.204Z,86.03
2019-05-25T04:03:59.256Z,86.08
2019-05-25T04:04:29.193Z,86.12
2019-05-25T04:04:59.260Z,86.08
2019-05-25T04:05:30.401Z,86.05
2019-05-25T04:05:59.251Z,86.11
2019-05-25T04:06:33.598Z,86.05
2019-05-25T04:06:59.256Z,85.99
2019-05-25T04:07:59.256Z,85.99
2019-05-25T04:08:29.198Z,86.10
2019-05-25T04:08:59.260Z,86.08
2019-05-25T04:09:29.199Z,86.06
2019-05-25T04:09:59.314Z,86.03
2019-05-25T04:10:29.203Z,86.01
2019-05-25T04:10:59.266Z,86.00
2019-05-25T04:11:29.200Z,86.08
2019-05-25T04:11:59.259Z,86.11
2019-05-25T04:12:29.211Z,86.04
2019-05-25T04:12:59.269Z,86.00
2019-05-25T04:13:29.193Z,86.08
2019-05-25T04:13:59.329Z,86.14
2019-05-25T04:14:29.195Z,86.21
2019-05-25T04:14:59.262Z,86.26
2019-05-25T04:15:29.232Z,86.33
2019-05-25T04:16:00.312Z,86.37
2019-05-25T04:16:29.198Z,86.46
2019-05-25T04:17:03.375Z,86.48
2019-05-25T04:17:29.209Z,86.49
2019-05-25T04:18:05.075Z,86.55
2019-05-25T04:18:29.199Z,86.53
2019-05-25T04:18:59.264Z,86.59
2019-05-25T04:19:29.193Z,86.62
2019-05-25T04:19:59.261Z,86.65
2019-05-25T04:20:29.202Z,86.65
2019-05-25T04:20:59.271Z,86.70
2019-05-25T04:21:29.197Z,86.69
2019-05-25T04:21:59.254Z,86.60
2019-05-25T04:22:29.205Z,86.59
2019-05-25T04:22:59.271Z,86.55
2019-05-25T04:23:29.206Z,86.59
2019-05-25T04:23:59.255Z,86.65
2019-05-25T04:24:29.268Z,86.63
2019-05-25T04:24:59.268Z,86.64
2019-05-25T04:25:29.213Z,86.65
2019-05-25T04:25:59.264Z,86.65
2019-05-25T04:26:30.505Z,86.68
2019-05-25T04:26:59.269Z,86.73
2019-05-25T04:27:34.977Z,86.74
2019-05-25T04:27:59.263Z,86.77
2019-05-25T04:28:35.144Z,86.76
2019-05-25T04:28:59.267Z,86.74
2019-05-25T04:29:29.201Z,86.73
2019-05-25T04:29:59.270Z,86.74
2019-05-25T04:30:29.252Z,86.77
2019-05-25T04:30:59.296Z,86.75
2019-05-25T04:31:29.202Z,86.68
2019-05-25T04:31:59.262Z,86.65
2019-05-25T04:32:29.310Z,86.67
2019-05-25T04:32:59.265Z,86.62
2019-05-25T04:33:29.199Z,86.61
2019-05-25T04:33:59.263Z,86.67
2019-05-25T04:34:29.200Z,86.63
2019-05-25T04:34:59.280Z,86.49
2019-05-25T04:35:29.218Z,86.42
2019-05-25T04:35:59.262Z,86.38
2019-05-25T04:36:29.199Z,86.42
2019-05-25T04:37:00.336Z,86.46
2019-05-25T04:37:29.199Z,86.47
2019-05-25T04:38:04.390Z,86.50
2019-05-25T04:38:29.245Z,86.61
2019-05-25T04:39:05.097Z,86.62
2019-05-25T04:39:29.221Z,86.57
2019-05-25T04:39:59.261Z,86.57
2019-05-25T04:40:29.206Z,86.60
2019-05-25T04:40:59.337Z,86.54
2019-05-25T04:41:29.207Z,86.57
2019-05-25T04:41:59.285Z,86.60
2019-05-25T04:42:29.208Z,86.70
2019-05-25T04:42:59.282Z,86.68
2019-05-25T04:43:29.208Z,86.68
2019-05-25T04:43:59.265Z,86.66
2019-05-25T04:44:29.203Z,86.71
2019-05-25T04:44:59.274Z,86.78
2019-05-25T04:45:29.205Z,86.81
2019-05-25T04:45:59.269Z,86.81
2019-05-25T04:46:29.256Z,86.73
2019-05-25T04:46:59.272Z,86.66
2019-05-25T04:47:30.436Z,86.59
2019-05-25T04:47:59.268Z,86.51
2019-05-25T04:48:33.482Z,86.51
2019-05-25T04:48:59.265Z,86.56
2019-05-25T04:49:59.267Z,86.60
2019-05-25T04:50:29.205Z,86.65
2019-05-25T04:50:59.279Z,86.65
2019-05-25T04:51:29.325Z,86.66
2019-05-25T04:51:59.276Z,86.71
2019-05-25T04:52:29.208Z,86.76
2019-05-25T04:52:59.270Z,86.68
2019-05-25T04:53:29.383Z,86.62
2019-05-25T04:53:59.276Z,86.59
2019-05-25T04:54:29.215Z,86.44
2019-05-25T04:54:59.269Z,86.23
2019-05-25T04:55:29.285Z,86.12
2019-05-25T04:55:59.274Z,85.96
2019-05-25T04:56:39.228Z,85.86
2019-05-25T04:56:59.272Z,85.81
2019-05-25T04:57:29.236Z,85.78
2019-05-25T04:57:59.272Z,85.75
2019-05-25T04:58:29.214Z,85.78
2019-05-25T04:59:04.145Z,85.72
2019-05-25T04:59:29.209Z,85.87
2019-05-25T05:00:05.111Z,86.12
2019-05-25T05:00:29.209Z,86.31
2019-05-25T05:00:59.271Z,86.29
2019-05-25T05:01:29.208Z,86.29
2019-05-25T05:01:59.298Z,86.38
2019-05-25T05:02:29.212Z,86.43
2019-05-25T05:02:59.283Z,86.46
2019-05-25T05:03:29.205Z,86.47
2019-05-25T05:03:59.275Z,86.40
2019-05-25T05:04:29.208Z,86.42
2019-05-25T05:04:59.272Z,86.43
2019-05-25T05:05:29.206Z,86.41
2019-05-25T05:05:59.272Z,86.38
2019-05-25T05:06:29.212Z,86.53
2019-05-25T05:06:59.317Z,86.43
2019-05-25T05:07:29.213Z,86.46
2019-05-25T05:07:59.284Z,86.43
2019-05-25T05:08:30.985Z,86.28
2019-05-25T05:08:59.277Z,86.17
2019-05-25T05:09:34.960Z,85.98
2019-05-25T05:10:02.878Z,85.89
2019-05-25T05:10:35.124Z,85.85
2019-05-25T05:10:59.282Z,85.73
2019-05-25T05:11:29.215Z,85.64
2019-05-25T05:11:59.279Z,85.63
2019-05-25T05:12:29.216Z,85.67
2019-05-25T05:12:59.270Z,85.73
2019-05-25T05:13:29.221Z,85.67
2019-05-25T05:13:59.278Z,85.69
2019-05-25T05:14:29.349Z,85.75
2019-05-25T05:14:59.278Z,85.76
2019-05-25T05:15:29.210Z,85.78
2019-05-25T05:15:59.281Z,85.75
2019-05-25T05:16:29.229Z,85.59
2019-05-25T05:16:59.279Z,85.63
2019-05-25T05:17:29.209Z,85.59
2019-05-25T05:17:59.279Z,85.43
2019-05-25T05:18:29.273Z,85.38
2019-05-25T05:19:00.998Z,85.24
2019-05-25T05:19:29.213Z,85.23
2019-05-25T05:20:03.460Z,85.08
2019-05-25T05:20:29.334Z,84.99
2019-05-25T05:21:05.098Z,85.03
2019-05-25T05:21:29.222Z,85.11
2019-05-25T05:21:59.315Z,85.29
2019-05-25T05:22:29.329Z,85.73
2019-05-25T05:22:59.278Z,86.00
2019-05-25T05:23:29.216Z,86.34
2019-05-25T05:23:59.278Z,86.45
2019-05-25T05:24:29.279Z,86.15
2019-05-25T05:24:59.278Z,86.33
2019-05-25T05:25:29.221Z,86.44
2019-05-25T05:25:59.274Z,86.42
2019-05-25T05:26:29.221Z,86.32
2019-05-25T05:26:59.386Z,86.30
2019-05-25T05:27:29.216Z,86.35
2019-05-25T05:27:59.276Z,86.42
2019-05-25T05:28:29.219Z,86.50
2019-05-25T05:28:59.278Z,86.62
2019-05-25T05:29:30.232Z,86.69
2019-05-25T05:29:59.286Z,86.81
2019-05-25T05:30:34.261Z,86.71
2019-05-25T05:30:59.363Z,86.66
2019-05-25T05:31:35.127Z,86.60
2019-05-25T05:31:59.290Z,86.51
2019-05-25T05:32:29.219Z,86.44
2019-05-25T05:32:59.294Z,86.50
2019-05-25T05:33:29.213Z,86.59
2019-05-25T05:33:59.285Z,86.66
2019-05-25T05:34:29.259Z,86.70
2019-05-25T05:34:59.288Z,86.64
2019-05-25T05:35:29.330Z,86.56
2019-05-25T05:35:59.278Z,86.55
2019-05-25T05:36:29.264Z,86.51
2019-05-25T05:36:59.279Z,86.41
2019-05-25T05:37:29.220Z,86.36
2019-05-25T05:37:59.322Z,86.43
2019-05-25T05:38:29.221Z,86.47
2019-05-25T05:38:59.271Z,86.50
2019-05-25T05:39:29.219Z,86.52
2019-05-25T05:40:00.373Z,86.49
2019-05-25T05:40:29.223Z,86.47
2019-05-25T05:41:04.465Z,86.35
2019-05-25T05:41:31.348Z,86.27
2019-05-25T05:42:05.108Z,86.17
2019-05-25T05:42:29.230Z,86.10
2019-05-25T05:42:59.288Z,86.05
2019-05-25T05:43:29.234Z,85.90
2019-05-25T05:43:59.282Z,85.85
2019-05-25T05:44:29.220Z,85.80
2019-05-25T05:44:59.278Z,85.83
2019-05-25T05:45:29.297Z,85.84
2019-05-25T05:45:59.289Z,85.89
2019-05-25T05:46:29.216Z,85.90
2019-05-25T05:46:59.311Z,85.80
2019-05-25T05:47:29.225Z,85.75
2019-05-25T05:47:59.299Z,85.72
2019-05-25T05:48:29.221Z,85.70
2019-05-25T05:48:59.287Z,85.84
2019-05-25T05:49:29.219Z,86.00
2019-05-25T05:49:59.277Z,85.92
2019-05-25T05:50:30.451Z,85.96
2019-05-25T05:50:59.282Z,86.23
2019-05-25T05:51:33.513Z,86.38
2019-05-25T05:51:59.290Z,86.60
2019-05-25T05:52:59.278Z,86.76
2019-05-25T05:53:29.251Z,86.91
2019-05-25T05:53:59.345Z,87.01
2019-05-25T05:54:29.224Z,87.15
2019-05-25T05:54:59.286Z,87.25
2019-05-25T05:55:29.237Z,87.21
2019-05-25T05:55:59.371Z,87.29
2019-05-25T05:56:29.344Z,87.41
2019-05-25T05:57:11.483Z,87.30
2019-05-25T05:57:29.226Z,87.30
2019-05-25T05:57:59.304Z,87.36
2019-05-25T05:58:29.225Z,87.46
2019-05-25T05:58:59.288Z,87.40
2019-05-25T05:59:29.234Z,87.30
2019-05-25T05:59:59.367Z,87.29
2019-05-25T06:00:29.228Z,87.36
2019-05-25T06:01:00.486Z,87.41
2019-05-25T06:01:29.226Z,87.43
2019-05-25T06:02:03.498Z,87.42
2019-05-25T06:02:29.224Z,87.51
2019-05-25T06:03:07.147Z,87.56
2019-05-25T06:03:29.234Z,87.59
2019-05-25T06:03:59.293Z,87.70
2019-05-25T06:04:29.227Z,87.71
2019-05-25T06:04:59.295Z,87.78
2019-05-25T06:05:29.227Z,87.85
2019-05-25T06:05:59.303Z,87.84
2019-05-25T06:06:29.230Z,87.83
2019-05-25T06:06:59.285Z,87.87
2019-05-25T06:07:29.225Z,87.96
2019-05-25T06:07:59.281Z,88.10
2019-05-25T06:08:29.385Z,88.24
2019-05-25T06:08:59.328Z,88.30
2019-05-25T06:09:29.226Z,88.35
2019-05-25T06:09:59.291Z,88.23
2019-05-25T06:10:29.323Z,88.14
2019-05-25T06:10:59.283Z,87.95
2019-05-25T06:11:30.511Z,87.95
2019-05-25T06:11:59.298Z,88.07
2019-05-25T06:12:34.518Z,88.13
2019-05-25T06:12:59.303Z,88.00
2019-05-25T06:13:59.301Z,87.82
2019-05-25T06:14:29.323Z,87.79
2019-05-25T06:14:59.298Z,87.74
2019-05-25T06:15:29.232Z,87.68
2019-05-25T06:15:59.300Z,87.61
2019-05-25T06:16:29.253Z,87.58
2019-05-25T06:16:59.289Z,87.53
2019-05-25T06:17:29.338Z,87.44
2019-05-25T06:17:59.299Z,87.17
2019-05-25T06:18:29.232Z,87.06
2019-05-25T06:18:59.314Z,86.70
2019-05-25T06:19:29.243Z,86.64
2019-05-25T06:19:59.290Z,86.87
2019-05-25T06:20:29.229Z,87.03
2019-05-25T06:20:59.394Z,87.03
2019-05-25T06:21:29.231Z,87.19
2019-05-25T06:22:00.518Z,86.98
2019-05-25T06:22:29.229Z,86.83
2019-05-25T06:23:06.852Z,86.58
2019-05-25T06:23:29.230Z,86.83
2019-05-25T06:24:05.108Z,86.99
2019-05-25T06:24:29.274Z,87.18
2019-05-25T06:24:59.297Z,86.97
2019-05-25T06:25:29.236Z,87.03
2019-05-25T06:25:59.288Z,87.25
2019-05-25T06:26:29.237Z,87.27
2019-05-25T06:26:59.309Z,87.07
2019-05-25T06:27:29.233Z,86.92
2019-05-25T06:27:59.300Z,86.90
2019-05-25T06:28:29.233Z,86.96
2019-05-25T06:28:59.297Z,87.10
2019-05-25T06:29:29.234Z,87.27
2019-05-25T06:29:59.306Z,87.52
2019-05-25T06:30:29.233Z,87.67
2019-05-25T06:30:59.296Z,87.64
2019-05-25T06:31:29.233Z,87.79
2019-05-25T06:31:59.292Z,87.57
2019-05-25T06:32:30.395Z,87.58
2019-05-25T06:32:59.295Z,87.71
2019-05-25T06:33:33.395Z,87.55
2019-05-25T06:33:59.301Z,87.55
2019-05-25T06:34:59.297Z,87.74
2019-05-25T06:35:29.401Z,87.72
2019-05-25T06:35:59.304Z,87.58
2019-05-25T06:36:29.241Z,87.37